Time;durP1;ratioP1;P1;durP2;ratioP2;P2;SDS_P1;SDS_P2;PMS_P1;PMS_P2;Temp;Humidity;BMP_temperature;BMP_pressure;BME280_temperature;BME280_humidity;BME280_pressure;Samples;Min_cycle;Max_cycle;Signal;HPM_P1;HPM_P2
2023/12/08 00:01:05;;;;;;;;;;;;;;;;;;4913249;28;19970;-69
2023/12/08 00:03:33;;;;;;;;;;;;;;;;;;4929307;28;19919;-66
2023/12/08 00:05:58;;;;;;;;;;;;;;;;;;4930590;28;20033;-67
2023/12/08 00:08:27;;;;;;;;;;;;;;;;;;4929146;28;20424;-67
2023/12/08 00:10:56;;;;;;;;;;;;;;;;;;4915899;29;20358;-68
2023/12/08 00:13:22;;;;;;;;;;;;;;;;;;4900310;28;19930;-67
2023/12/08 00:15:47;;;;;;;;;;;;;;;;;;4912122;28;19930;-67
2023/12/08 00:18:12;;;;;;;;;;;;;;;;;;4924364;28;19919;-67
2023/12/08 00:20:38;;;;;;;;;;;;;;;;;;4900535;29;20404;-67
2023/12/08 00:23:03;;;;;;;;;;;;;;;;;;4898444;28;19973;-68
2023/12/08 00:25:29;;;;;;;;;;;;;;;;;;4929915;28;20058;-68
2023/12/08 00:27:54;;;;;;;;;;;;;;;;;;4930108;28;19923;-67
2023/12/08 00:30:23;;;;;;;;;;;;;;;;;;4929268;28;19926;-66
2023/12/08 00:32:48;;;;;;;;;;;;;;;;;;4940185;28;20371;-68
2023/12/08 00:35:13;;;;;;;;;;;;;;;;;;4912864;28;20606;-67
2023/12/08 00:37:38;;;;;;;;;;;;;;;;;;4915360;28;19957;-68
2023/12/08 00:40:05;;;;;;;;;;;;;;;;;;4913388;28;20025;-72
2023/12/08 00:42:30;;;;;;;;;;;;;;;;;;4930353;28;19914;-67
2023/12/08 00:44:56;;;;;;;;;;;;;;;;;;4924243;28;19941;-67
2023/12/08 00:47:21;;;;;;;;;;;;;;;;;;4891674;28;20016;-70
2023/12/08 00:49:50;;;;;;;;;;;;;;;;;;4924117;28;19957;-67
2023/12/08 00:52:18;;;;;;;;;;;;;;;;;;4927832;28;19922;-68
2023/12/08 00:54:43;;;;;;;;;;;;;;;;;;4916990;29;19973;-68
2023/12/08 00:57:12;;;;;;;;;;;;;;;;;;4927703;28;19918;-69
2023/12/08 00:59:37;;;;;;;;;;;;;;;;;;4933888;28;20638;-67
2023/12/08 01:02:02;;;;;;;;;;;;;;;;;;4899792;29;20533;-68
2023/12/08 01:04:30;;;;;;;;;;;;;;;;;;4934912;28;19949;-72
2023/12/08 01:06:58;;;;;;;;;;;;;;;;;;4914976;28;20267;-67
2023/12/08 01:09:26;;;;;;;;;;;;;;;;;;4927530;28;19953;-67
2023/12/08 01:11:51;;;;;;;;;;;;;;;;;;4933285;28;20852;-66
2023/12/08 01:14:17;;;;;;;;;;;;;;;;;;4932994;28;19918;-65
2023/12/08 01:16:42;;;;;;;;;;;;;;;;;;4926745;28;19923;-66
2023/12/08 01:19:10;;;;;;;;;;;;;;;;;;4934332;28;19934;-66
2023/12/08 01:21:36;;;;;;;;;;;;;;;;;;4901957;29;21672;-67
2023/12/08 01:24:01;;;;;;;;;;;;;;;;;;4913888;28;19919;-68
2023/12/08 01:26:27;;;;;;;;;;;;;;;;;;4932612;28;19914;-69
2023/12/08 01:28:55;;;;;;;;;;;;;;;;;;4931897;28;20025;-67
2023/12/08 01:31:23;;;;;;;;;;;;;;;;;;4929687;28;20128;-66
2023/12/08 01:33:48;;;;;;;;;;;;;;;;;;4900074;28;19922;-66
2023/12/08 01:36:14;;;;;;;;;;;;;;;;;;4934136;28;19961;-67
2023/12/08 01:38:39;;;;;;;;;;;;;;;;;;4899503;28;19918;-66
2023/12/08 01:41:05;;;;;;;;;;;;;;;;;;4925560;28;20005;-72
2023/12/08 01:43:30;;;;;;;;;;;;;;;;;;4911265;28;19993;-67
2023/12/08 01:45:55;;;;;;;;;;;;;;;;;;4943776;28;19919;-66
2023/12/08 01:48:23;;;;;;;;;;;;;;;;;;4924386;28;19929;-67
2023/12/08 01:50:50;;;;;;;;;;;;;;;;;;4930931;28;20325;-68
2023/12/08 01:53:15;;;;;;;;;;;;;;;;;;4927132;28;22286;-65
2023/12/08 01:55:41;;;;;;;;;;;;;;;;;;4933619;28;19922;-66
2023/12/08 01:58:06;;;;;;;;;;;;;;;;;;4901268;29;20422;-67
2023/12/08 02:00:31;;;;;;;;;;;;;;;;;;4932265;28;19930;-66
2023/12/08 02:02:57;;;;;;;;;;;;;;;;;;4940868;28;19949;-67
2023/12/08 02:05:22;;;;;;;;;;;;;;;;;;4914375;28;19919;-66
2023/12/08 02:07:50;;;;;;;;;;;;;;;;;;4914000;29;19958;-67
2023/12/08 02:10:16;;;;;;;;;;;;;;;;;;4934272;28;19922;-69
2023/12/08 02:12:44;;;;;;;;;;;;;;;;;;4900307;28;19922;-66
2023/12/08 02:15:12;;;;;;;;;;;;;;;;;;4926467;28;20362;-67
2023/12/08 02:17:38;;;;;;;;;;;;;;;;;;4925093;28;19919;-67
2023/12/08 02:20:03;;;;;;;;;;;;;;;;;;4911975;29;20504;-67
2023/12/08 02:22:28;;;;;;;;;;;;;;;;;;4925230;28;19986;-68
2023/12/08 02:24:54;;;;;;;;;;;;;;;;;;4931213;28;19923;-68
2023/12/08 02:27:19;;;;;;;;;;;;;;;;;;4932018;28;19922;-67
2023/12/08 02:29:44;;;;;;;;;;;;;;;;;;4932256;28;20021;-68
2023/12/08 02:32:10;;;;;;;;;;;;;;;;;;4914728;28;20009;-66
2023/12/08 02:34:38;;;;;;;;;;;;;;;;;;4932412;28;20393;-67
2023/12/08 02:37:03;;;;;;;;;;;;;;;;;;4914754;28;20263;-69
2023/12/08 02:39:28;;;;;;;;;;;;;;;;;;4932878;28;20367;-67
2023/12/08 02:41:57;;;;;;;;;;;;;;;;;;4924277;28;20038;-67
2023/12/08 02:44:22;;;;;;;;;;;;;;;;;;4942040;28;19948;-66
2023/12/08 02:46:47;;;;;;;;;;;;;;;;;;4926112;28;19918;-66
2023/12/08 02:49:15;;;;;;;;;;;;;;;;;;4928336;28;19969;-66
2023/12/08 02:51:40;;;;;;;;;;;;;;;;;;4912885;29;19926;-67
2023/12/08 02:54:05;;;;;;;;;;;;;;;;;;4912184;28;19964;-66
2023/12/08 02:56:31;;;;;;;;;;;;;;;;;;4932717;28;19928;-67
2023/12/08 02:58:59;;;;;;;;;;;;;;;;;;4911673;28;20441;-66
2023/12/08 03:01:27;;;;;;;;;;;;;;;;;;4897553;28;20005;-67
2023/12/08 03:03:52;;;;;;;;;;;;;;;;;;4912758;28;19925;-67
2023/12/08 03:06:17;;;;;;;;;;;;;;;;;;4914769;28;19919;-67
2023/12/08 03:08:43;;;;;;;;;;;;;;;;;;4925128;28;20323;-67
2023/12/08 03:14:25;;;;;;;;;;;;;;;;;;4930373;28;19958;-67
2023/12/08 03:16:51;;;;;;;;;;;;;;;;;;4924797;28;19918;-66
2023/12/08 03:19:16;;;;;;;;;;;;;;;;;;4925803;28;19929;-67
2023/12/08 03:21:44;;;;;;;;;;;;;;;;;;4940161;28;19926;-67
2023/12/08 03:24:09;;;;;;;;;;;;;;;;;;4939496;28;20369;-67
2023/12/08 03:26:35;;;;;;;;;;;;;;;;;;4923947;28;19944;-67
2023/12/08 03:29:00;;;;;;;;;;;;;;;;;;4931621;28;20249;-68
2023/12/08 03:31:25;;;;;;;;;;;;;;;;;;4897228;29;20378;-67
2023/12/08 03:33:53;;;;;;;;;;;;;;;;;;4906913;28;19918;-66
2023/12/08 03:39:03;;;;;;;;;;;;;;;;;;4930461;28;20490;-68
2023/12/08 03:41:28;;;;;;;;;;;;;;;;;;4912214;28;19918;-69
2023/12/08 03:43:53;;;;;;;;;;;;;;;;;;4912199;28;19922;-68
2023/12/08 03:46:19;;;;;;;;;;;;;;;;;;4940721;28;20461;-68
2023/12/08 03:48:44;;;;;;;;;;;;;;;;;;4924579;28;19923;-66
2023/12/08 03:51:09;;;;;;;;;;;;;;;;;;4912196;29;20290;-67
2023/12/08 03:53:35;;;;;;;;;;;;;;;;;;4927892;28;20506;-67
2023/12/08 03:56:00;;;;;;;;;;;;;;;;;;4931594;28;19922;-67
2023/12/08 03:58:26;;;;;;;;;;;;;;;;;;4911147;28;19961;-67
2023/12/08 04:00:51;;;;;;;;;;;;;;;;;;4896835;28;19934;-66
2023/12/08 04:03:17;;;;;;;;;;;;;;;;;;4923647;28;19926;-67
2023/12/08 04:05:42;;;;;;;;;;;;;;;;;;4929986;28;19922;-66
2023/12/08 04:08:07;;;;;;;;;;;;;;;;;;4910133;29;19957;-66
2023/12/08 04:10:33;;;;;;;;;;;;;;;;;;4941171;28;19934;-68
2023/12/08 04:12:58;;;;;;;;;;;;;;;;;;4939091;28;19934;-66
2023/12/08 04:15:24;;;;;;;;;;;;;;;;;;4911819;29;19922;-67
2023/12/08 04:17:49;;;;;;;;;;;;;;;;;;4940372;28;21443;-67
2023/12/08 04:20:17;;;;;;;;;;;;;;;;;;4911860;29;19922;-68
2023/12/08 04:22:43;;;;;;;;;;;;;;;;;;4910669;28;19926;-67
2023/12/08 04:25:08;;;;;;;;;;;;;;;;;;4938254;28;20000;-67
2023/12/08 04:27:33;;;;;;;;;;;;;;;;;;4932586;28;20020;-68
2023/12/08 04:30:01;;;;;;;;;;;;;;;;;;4895904;28;20338;-67
2023/12/08 04:32:27;;;;;;;;;;;;;;;;;;4940289;28;19940;-67
2023/12/08 04:34:55;;;;;;;;;;;;;;;;;;4897682;28;19948;-68
2023/12/08 04:37:23;;;;;;;;;;;;;;;;;;4914268;28;20286;-68
2023/12/08 04:39:51;;;;;;;;;;;;;;;;;;4913934;29;19924;-67
2023/12/08 04:42:19;;;;;;;;;;;;;;;;;;4923730;28;19922;-68
2023/12/08 04:44:47;;;;;;;;;;;;;;;;;;4938515;28;19930;-69
2023/12/08 04:47:15;;;;;;;;;;;;;;;;;;4910984;28;20286;-67
2023/12/08 04:49:40;;;;;;;;;;;;;;;;;;4921902;28;19922;-65
2023/12/08 04:52:05;;;;;;;;;;;;;;;;;;4896858;28;20318;-66
2023/12/08 04:54:36;;;;;;;;;;;;;;;;;;4940364;28;19934;-65
2023/12/08 04:57:02;;;;;;;;;;;;;;;;;;4922183;28;19922;-65
2023/12/08 04:59:27;;;;;;;;;;;;;;;;;;4904661;29;21553;-66
2023/12/08 05:01:53;;;;;;;;;;;;;;;;;;4880250;29;19923;-65
2023/12/08 05:04:18;;;;;;;;;;;;;;;;;;4907505;29;20413;-67
2023/12/08 05:06:43;;;;;;;;;;;;;;;;;;4904051;29;19965;-67
2023/12/08 05:09:14;;;;;;;;;;;;;;;;;;4918941;28;20528;-66
2023/12/08 05:11:41;;;;;;;;;;;;;;;;;;4890396;29;20326;-66
2023/12/08 05:14:06;;;;;;;;;;;;;;;;;;4911373;29;19978;-66
2023/12/08 05:16:32;;;;;;;;;;;;;;;;;;4910246;29;20418;-66
2023/12/08 05:18:57;;;;;;;;;;;;;;;;;;4904981;29;19918;-65
2023/12/08 05:21:22;;;;;;;;;;;;;;;;;;4906469;29;20074;-68
2023/12/08 05:23:48;;;;;;;;;;;;;;;;;;4919062;28;19923;-66
2023/12/08 05:26:16;;;;;;;;;;;;;;;;;;4911215;29;19923;-69
2023/12/08 05:28:41;;;;;;;;;;;;;;;;;;4911864;29;19935;-65
2023/12/08 05:31:09;;;;;;;;;;;;;;;;;;4904570;29;20378;-66
2023/12/08 05:33:34;;;;;;;;;;;;;;;;;;4921574;28;19926;-66
2023/12/08 05:36:02;;;;;;;;;;;;;;;;;;4922000;28;20375;-63
2023/12/08 05:38:30;;;;;;;;;;;;;;;;;;4913006;29;19926;-66
2023/12/08 05:40:55;;;;;;;;;;;;;;;;;;4912967;29;20446;-66
2023/12/08 05:43:23;;;;;;;;;;;;;;;;;;4913121;29;20345;-66
2023/12/08 05:45:50;;;;;;;;;;;;;;;;;;4883220;29;20029;-65
2023/12/08 05:48:18;;;;;;;;;;;;;;;;;;4897369;29;19923;-65
2023/12/08 05:50:44;;;;;;;;;;;;;;;;;;4924174;28;19958;-63
2023/12/08 05:53:09;;;;;;;;;;;;;;;;;;4910275;29;20013;-64
2023/12/08 05:55:35;;;;;;;;;;;;;;;;;;4897429;29;20016;-64
2023/12/08 05:58:03;;;;;;;;;;;;;;;;;;4881324;29;19962;-65
2023/12/08 06:00:31;;;;;;;;;;;;;;;;;;4908672;28;19953;-63
2023/12/08 06:02:59;;;;;;;;;;;;;;;;;;4932454;28;20017;-64
2023/12/08 06:05:24;;;;;;;;;;;;;;;;;;4933096;28;21438;-63
2023/12/08 06:07:52;;;;;;;;;;;;;;;;;;4931877;28;19918;-63
2023/12/08 06:10:17;;;;;;;;;;;;;;;;;;4918054;28;19926;-64
2023/12/08 06:12:46;;;;;;;;;;;;;;;;;;4911495;28;20008;-63
2023/12/08 06:15:11;;;;;;;;;;;;;;;;;;4904368;29;19922;-63
2023/12/08 06:17:36;;;;;;;;;;;;;;;;;;4943337;28;20009;-64
2023/12/08 06:20:04;;;;;;;;;;;;;;;;;;4926780;28;19923;-64
2023/12/08 06:22:32;;;;;;;;;;;;;;;;;;4932133;28;19918;-63
2023/12/08 06:25:02;;;;;;;;;;;;;;;;;;4933960;28;20013;-65
2023/12/08 06:27:27;;;;;;;;;;;;;;;;;;4916908;29;20366;-64
2023/12/08 06:29:55;;;;;;;;;;;;;;;;;;4927019;28;20323;-64
2023/12/08 06:32:21;;;;;;;;;;;;;;;;;;4943276;28;19919;-63
2023/12/08 06:34:46;;;;;;;;;;;;;;;;;;4926987;28;20134;-64
2023/12/08 06:37:14;;;;;;;;;;;;;;;;;;4901244;28;20062;-63
2023/12/08 06:39:42;;;;;;;;;;;;;;;;;;4927588;28;19965;-63
2023/12/08 06:42:10;;;;;;;;;;;;;;;;;;4943654;28;19925;-64
2023/12/08 06:44:39;;;;;;;;;;;;;;;;;;4942474;28;19982;-64
2023/12/08 06:47:08;;;;;;;;;;;;;;;;;;4927264;28;19923;-64
2023/12/08 06:49:33;;;;;;;;;;;;;;;;;;4926393;28;19988;-64
2023/12/08 06:52:01;;;;;;;;;;;;;;;;;;4926506;28;20408;-64
2023/12/08 06:54:29;;;;;;;;;;;;;;;;;;4914894;28;19941;-65
2023/12/08 06:56:54;;;;;;;;;;;;;;;;;;4933173;28;19922;-65
2023/12/08 06:59:19;;;;;;;;;;;;;;;;;;4917214;28;19962;-66
2023/12/08 07:01:47;;;;;;;;;;;;;;;;;;4901149;28;19918;-64
2023/12/08 07:04:12;;;;;;;;;;;;;;;;;;4913853;28;19922;-64
2023/12/08 07:06:40;;;;;;;;;;;;;;;;;;4914254;28;20374;-63
2023/12/08 07:09:09;;;;;;;;;;;;;;;;;;4924745;28;19960;-64
2023/12/08 07:11:39;;;;;;;;;;;;;;;;;;4925613;28;19976;-64
2023/12/08 07:14:07;;;;;;;;;;;;;;;;;;4914148;28;20133;-66
2023/12/08 07:16:35;;;;;;;;;;;;;;;;;;4942636;28;19957;-65
2023/12/08 07:19:01;;;;;;;;;;;;;;;;;;4940565;28;19919;-65
2023/12/08 07:21:29;;;;;;;;;;;;;;;;;;4924920;28;19930;-64
2023/12/08 07:23:57;;;;;;;;;;;;;;;;;;4923009;28;20006;-67
2023/12/08 07:26:22;;;;;;;;;;;;;;;;;;4912755;28;19918;-64
2023/12/08 07:28:50;;;;;;;;;;;;;;;;;;4898359;29;19922;-65
2023/12/08 07:31:20;;;;;;;;;;;;;;;;;;4913847;28;20029;-65
2023/12/08 07:33:48;;;;;;;;;;;;;;;;;;4923946;28;20483;-66
2023/12/08 07:36:18;;;;;;;;;;;;;;;;;;4912737;28;19922;-65
2023/12/08 07:38:46;;;;;;;;;;;;;;;;;;4930304;28;19970;-64
2023/12/08 07:41:11;;;;;;;;;;;;;;;;;;4899598;29;19922;-66
2023/12/08 07:43:39;;;;;;;;;;;;;;;;;;4924004;28;19969;-66
2023/12/08 07:46:07;;;;;;;;;;;;;;;;;;4931222;28;20179;-65
2023/12/08 07:48:44;;;;;;;;;;;;;;;;;;4897816;28;20591;-65
2023/12/08 07:51:12;;;;;;;;;;;;;;;;;;4924837;28;19926;-65
2023/12/08 07:53:37;;;;;;;;;;;;;;;;;;4911418;28;20091;-66
2023/12/08 07:56:02;;;;;;;;;;;;;;;;;;4923271;28;20667;-65
2023/12/08 07:58:28;;;;;;;;;;;;;;;;;;4925177;28;20033;-65
2023/12/08 08:00:53;;;;;;;;;;;;;;;;;;4930564;28;20009;-64
2023/12/08 08:03:18;;;;;;;;;;;;;;;;;;4924907;28;20367;-65
2023/12/08 08:05:46;;;;;;;;;;;;;;;;;;4913627;28;20009;-66
2023/12/08 08:08:12;;;;;;;;;;;;;;;;;;4911513;28;19922;-67
2023/12/08 08:10:37;;;;;;;;;;;;;;;;;;4913142;28;20004;-66
2023/12/08 08:13:02;;;;;;;;;;;;;;;;;;4912122;28;19963;-65
2023/12/08 08:15:28;;;;;;;;;;;;;;;;;;4932832;28;19982;-65
2023/12/08 08:17:53;;;;;;;;;;;;;;;;;;4914511;29;20317;-65
2023/12/08 08:20:19;;;;;;;;;;;;;;;;;;4917620;28;19926;-67
2023/12/08 08:22:44;;;;;;;;;;;;;;;;;;4893572;28;20057;-67
2023/12/08 08:25:09;;;;;;;;;;;;;;;;;;4892629;29;20184;-68
2023/12/08 08:27:34;;;;;;;;;;;;;;;;;;4899495;28;19922;-68
2023/12/08 08:30:05;;;;;;;;;;;;;;;;;;4899703;28;19930;-68
2023/12/08 08:32:30;;;;;;;;;;;;;;;;;;4911764;28;19944;-68
2023/12/08 08:34:58;;;;;;;;;;;;;;;;;;4921985;28;19923;-70
2023/12/08 08:37:23;;;;;;;;;;;;;;;;;;4913828;29;19921;-69
2023/12/08 08:39:49;;;;;;;;;;;;;;;;;;4910547;28;19919;-69
2023/12/08 08:42:14;;;;;;;;;;;;;;;;;;4907890;29;20129;-68
2023/12/08 08:44:39;;;;;;;;;;;;;;;;;;4931634;28;19925;-68
2023/12/08 08:47:05;;;;;;;;;;;;;;;;;;4893824;29;19923;-67
2023/12/08 08:49:30;;;;;;;;;;;;;;;;;;4932346;28;19923;-68
2023/12/08 08:51:56;;;;;;;;;;;;;;;;;;4898552;28;19956;-68
2023/12/08 08:54:21;;;;;;;;;;;;;;;;;;4898684;29;19922;-68
2023/12/08 08:56:46;;;;;;;;;;;;;;;;;;4911754;28;19923;-68
2023/12/08 08:59:14;;;;;;;;;;;;;;;;;;4910899;28;19961;-69
2023/12/08 09:01:41;;;;;;;;;;;;;;;;;;4923862;28;20322;-69
2023/12/08 09:04:07;;;;;;;;;;;;;;;;;;4930864;28;19922;-68
2023/12/08 09:06:32;;;;;;;;;;;;;;;;;;4913006;29;19922;-68
2023/12/08 09:08:58;;;;;;;;;;;;;;;;;;4912017;28;19918;-68
2023/12/08 09:11:41;;;;;;;;;;;;;;;;;;4941142;28;19930;-69
2023/12/08 09:14:07;;;;;;;;;;;;;;;;;;4915600;28;19972;-69
2023/12/08 09:16:35;;;;;;;;;;;;;;;;;;4916786;29;19929;-70
2023/12/08 09:19:03;;;;;;;;;;;;;;;;;;4934949;28;19918;-67
2023/12/08 09:21:28;;;;;;;;;;;;;;;;;;4916041;29;19922;-68
2023/12/08 09:23:53;;;;;;;;;;;;;;;;;;4924401;28;20327;-69
2023/12/08 09:26:19;;;;;;;;;;;;;;;;;;4918293;28;20149;-68
2023/12/08 09:28:47;;;;;;;;;;;;;;;;;;4915594;28;20081;-67
2023/12/08 09:31:12;;;;;;;;;;;;;;;;;;4916505;28;19930;-68
2023/12/08 09:33:41;;;;;;;;;;;;;;;;;;4915145;28;19922;-69
2023/12/08 09:36:10;;;;;;;;;;;;;;;;;;4914904;28;19937;-68
2023/12/08 09:38:35;;;;;;;;;;;;;;;;;;4914908;29;20322;-69
2023/12/08 09:41:09;;;;;;;;;;;;;;;;;;4916765;29;19918;-68
2023/12/08 09:43:34;;;;;;;;;;;;;;;;;;4932524;28;20418;-68
2023/12/08 09:45:59;;;;;;;;;;;;;;;;;;4898541;29;19974;-67
2023/12/08 09:48:25;;;;;;;;;;;;;;;;;;4914565;28;19926;-67
2023/12/08 09:50:52;;;;;;;;;;;;;;;;;;4912587;29;19922;-68
2023/12/08 09:53:20;;;;;;;;;;;;;;;;;;4896347;28;20086;-66
2023/12/08 09:55:48;;;;;;;;;;;;;;;;;;4914442;29;20461;-68
2023/12/08 09:58:14;;;;;;;;;;;;;;;;;;4914444;28;19918;-68
2023/12/08 10:00:42;;;;;;;;;;;;;;;;;;4902117;29;20362;-68
2023/12/08 10:03:10;;;;;;;;;;;;;;;;;;4927470;28;19985;-69
2023/12/08 10:05:36;;;;;;;;;;;;;;;;;;4942382;28;20299;-68
2023/12/08 10:08:01;;;;;;;;;;;;;;;;;;4915986;28;20195;-69
2023/12/08 10:10:26;;;;;;;;;;;;;;;;;;4928805;28;19981;-68
2023/12/08 10:12:52;;;;;;;;;;;;;;;;;;4932402;28;19919;-69
2023/12/08 10:15:18;;;;;;;;;;;;;;;;;;4927429;28;19925;-68
2023/12/08 10:17:49;;;;;;;;;;;;;;;;;;4914061;28;20091;-69
2023/12/08 10:20:15;;;;;;;;;;;;;;;;;;4899925;28;19918;-67
2023/12/08 10:22:40;;;;;;;;;;;;;;;;;;4911768;28;20000;-68
2023/12/08 10:25:06;;;;;;;;;;;;;;;;;;4926372;28;19946;-69
2023/12/08 10:27:31;;;;;;;;;;;;;;;;;;4915562;29;19923;-69
2023/12/08 10:29:57;;;;;;;;;;;;;;;;;;4924635;28;19981;-69
2023/12/08 10:32:24;;;;;;;;;;;;;;;;;;4926639;28;20029;-68
2023/12/08 10:34:50;;;;;;;;;;;;;;;;;;4932860;28;20360;-69
2023/12/08 10:37:15;;;;;;;;;;;;;;;;;;4915349;28;19923;-69
2023/12/08 10:39:41;;;;;;;;;;;;;;;;;;4926387;28;19922;-68
2023/12/08 10:42:06;;;;;;;;;;;;;;;;;;4932568;28;19919;-68
2023/12/08 10:44:32;;;;;;;;;;;;;;;;;;4912540;28;20049;-68
2023/12/08 10:46:58;;;;;;;;;;;;;;;;;;4913142;28;20053;-68
2023/12/08 10:49:23;;;;;;;;;;;;;;;;;;4933555;28;19984;-69
2023/12/08 10:51:48;;;;;;;;;;;;;;;;;;4899366;28;19927;-68
2023/12/08 10:54:16;;;;;;;;;;;;;;;;;;4942000;28;19930;-68
2023/12/08 10:56:42;;;;;;;;;;;;;;;;;;4912120;28;19997;-68
2023/12/08 10:59:07;;;;;;;;;;;;;;;;;;4911487;28;20087;-69
2023/12/08 11:01:33;;;;;;;;;;;;;;;;;;4942981;28;20604;-70
2023/12/08 11:03:58;;;;;;;;;;;;;;;;;;4925573;28;20302;-70
2023/12/08 11:06:23;;;;;;;;;;;;;;;;;;4914212;29;19933;-70
2023/12/08 11:08:49;;;;;;;;;;;;;;;;;;4925714;28;20390;-69
2023/12/08 11:11:14;;;;;;;;;;;;;;;;;;4899654;28;19926;-69
2023/12/08 11:13:42;;;;;;;;;;;;;;;;;;4913611;29;20009;-69
2023/12/08 11:19:27;;;;;;;;;;;;;;;;;;4931769;28;20033;-67
2023/12/08 11:21:55;;;;;;;;;;;;;;;;;;4913827;28;20482;-68
2023/12/08 11:24:20;;;;;;;;;;;;;;;;;;4913724;29;19925;-68
2023/12/08 11:26:46;;;;;;;;;;;;;;;;;;4917293;28;19930;-69
2023/12/08 11:29:11;;;;;;;;;;;;;;;;;;4927651;28;19934;-68
2023/12/08 11:31:36;;;;;;;;;;;;;;;;;;4928581;28;21263;-70
2023/12/08 11:36:46;;;;;;;;;;;;;;;;;;4911334;28;20478;-69
2023/12/08 11:39:11;;;;;;;;;;;;;;;;;;4923347;28;19985;-69
2023/12/08 11:41:36;;;;;;;;;;;;;;;;;;4909384;28;19929;-69
2023/12/08 11:44:03;;;;;;;;;;;;;;;;;;4914184;29;19923;-70
2023/12/08 11:46:28;;;;;;;;;;;;;;;;;;4911876;29;19947;-68
2023/12/08 11:48:53;;;;;;;;;;;;;;;;;;4911563;28;20524;-69
2023/12/08 11:51:22;;;;;;;;;;;;;;;;;;4925281;28;19922;-68
2023/12/08 11:53:48;;;;;;;;;;;;;;;;;;4896890;28;20008;-69
2023/12/08 11:56:18;;;;;;;;;;;;;;;;;;4932919;28;20463;-69
2023/12/08 11:58:43;;;;;;;;;;;;;;;;;;4929550;28;19958;-69
2023/12/08 12:01:09;;;;;;;;;;;;;;;;;;4939111;28;20037;-69
2023/12/08 12:03:34;;;;;;;;;;;;;;;;;;4926003;28;20384;-70
2023/12/08 12:06:01;;;;;;;;;;;;;;;;;;4929814;28;20905;-69
2023/12/08 12:08:27;;;;;;;;;;;;;;;;;;4906731;29;20395;-69
2023/12/08 12:10:55;;;;;;;;;;;;;;;;;;4897917;29;20057;-70
2023/12/08 12:13:20;;;;;;;;;;;;;;;;;;4895559;29;20012;-70
2023/12/08 12:15:46;;;;;;;;;;;;;;;;;;4924828;28;20390;-71
2023/12/08 12:18:13;;;;;;;;;;;;;;;;;;4898141;28;20342;-70
2023/12/08 12:20:38;;;;;;;;;;;;;;;;;;4911885;28;19925;-69
2023/12/08 12:23:03;;;;;;;;;;;;;;;;;;4913188;28;19981;-69
2023/12/08 12:25:31;;;;;;;;;;;;;;;;;;4911987;29;19922;-70
2023/12/08 12:28:00;;;;;;;;;;;;;;;;;;4908499;28;19952;-69
2023/12/08 12:30:25;;;;;;;;;;;;;;;;;;4923054;28;19930;-71
2023/12/08 12:32:51;;;;;;;;;;;;;;;;;;4931590;28;20464;-70
2023/12/08 12:35:16;;;;;;;;;;;;;;;;;;4928841;28;20510;-69
2023/12/08 12:37:42;;;;;;;;;;;;;;;;;;4912381;28;19922;-69
2023/12/08 12:40:08;;;;;;;;;;;;;;;;;;4911070;28;19922;-69
2023/12/08 12:42:33;;;;;;;;;;;;;;;;;;4931730;28;20306;-69
2023/12/08 12:44:58;;;;;;;;;;;;;;;;;;4921707;28;19922;-70
2023/12/08 12:47:27;;;;;;;;;;;;;;;;;;4912865;28;19930;-70
2023/12/08 12:49:52;;;;;;;;;;;;;;;;;;4923587;28;19934;-71
2023/12/08 12:52:18;;;;;;;;;;;;;;;;;;4898015;29;19994;-71
2023/12/08 12:54:43;;;;;;;;;;;;;;;;;;4931115;28;20206;-70
2023/12/08 12:57:09;;;;;;;;;;;;;;;;;;4923181;28;19929;-71
2023/12/08 12:59:34;;;;;;;;;;;;;;;;;;4939366;28;19929;-71
2023/12/08 13:01:59;;;;;;;;;;;;;;;;;;4920683;28;19922;-69
2023/12/08 13:04:25;;;;;;;;;;;;;;;;;;4899844;29;19923;-71
2023/12/08 13:06:50;;;;;;;;;;;;;;;;;;4913908;28;20461;-71
2023/12/08 13:09:15;;;;;;;;;;;;;;;;;;4923006;28;20093;-70
2023/12/08 13:11:41;;;;;;;;;;;;;;;;;;4908287;28;21393;-71
2023/12/08 13:14:06;;;;;;;;;;;;;;;;;;4894648;28;20435;-71
2023/12/08 13:16:31;;;;;;;;;;;;;;;;;;4926547;28;20330;-70
2023/12/08 13:18:57;;;;;;;;;;;;;;;;;;4907898;29;20362;-70
2023/12/08 13:21:22;;;;;;;;;;;;;;;;;;4921339;28;19925;-71
2023/12/08 13:23:50;;;;;;;;;;;;;;;;;;4908236;28;19914;-69
2023/12/08 13:26:16;;;;;;;;;;;;;;;;;;4931844;28;19922;-71
2023/12/08 13:28:41;;;;;;;;;;;;;;;;;;4928163;28;19922;-71
2023/12/08 13:31:06;;;;;;;;;;;;;;;;;;4925095;28;19992;-71
2023/12/08 13:33:32;;;;;;;;;;;;;;;;;;4920432;28;20189;-70
2023/12/08 13:35:57;;;;;;;;;;;;;;;;;;4927477;28;19945;-70
2023/12/08 13:38:22;;;;;;;;;;;;;;;;;;4919957;28;20228;-71
2023/12/08 13:40:48;;;;;;;;;;;;;;;;;;4910777;28;20017;-70
2023/12/08 13:43:13;;;;;;;;;;;;;;;;;;4909025;28;19918;-71
2023/12/08 13:45:39;;;;;;;;;;;;;;;;;;4928080;28;20294;-70
2023/12/08 13:48:04;;;;;;;;;;;;;;;;;;4911892;28;19941;-70
2023/12/08 13:50:30;;;;;;;;;;;;;;;;;;4911295;28;20033;-70
2023/12/08 13:52:55;;;;;;;;;;;;;;;;;;4930348;28;20058;-71
2023/12/08 13:55:28;;;;;;;;;;;;;;;;;;4923865;28;20078;-71
2023/12/08 13:58:03;;;;;;;;;;;;;;;;;;4924395;28;19929;-72
2023/12/08 14:00:28;;;;;;;;;;;;;;;;;;4930370;28;20414;-72
2023/12/08 14:02:54;;;;;;;;;;;;;;;;;;4933313;28;19985;-71
2023/12/08 14:05:20;;;;;;;;;;;;;;;;;;4931480;28;19937;-72
2023/12/08 14:07:45;;;;;;;;;;;;;;;;;;4900255;29;20021;-73
2023/12/08 14:10:11;;;;;;;;;;;;;;;;;;4932985;28;19933;-71
2023/12/08 14:12:37;;;;;;;;;;;;;;;;;;4931307;28;20653;-73
2023/12/08 14:15:02;;;;;;;;;;;;;;;;;;4940545;28;19923;-71
2023/12/08 14:17:28;;;;;;;;;;;;;;;;;;4926079;28;19929;-72
2023/12/08 14:19:54;;;;;;;;;;;;;;;;;;4931182;28;20018;-71
2023/12/08 14:22:19;;;;;;;;;;;;;;;;;;4930603;28;20043;-72
2023/12/08 14:24:45;;;;;;;;;;;;;;;;;;4929485;28;21805;-72
2023/12/08 14:27:10;;;;;;;;;;;;;;;;;;4899723;28;19922;-72
2023/12/08 14:29:36;;;;;;;;;;;;;;;;;;4925321;28;20317;-72
2023/12/08 14:32:02;;;;;;;;;;;;;;;;;;4939583;28;20404;-72
2023/12/08 14:34:27;;;;;;;;;;;;;;;;;;4932923;28;19918;-72
2023/12/08 14:36:52;;;;;;;;;;;;;;;;;;4931449;28;20481;-71
2023/12/08 14:39:18;;;;;;;;;;;;;;;;;;4930557;28;19923;-72
2023/12/08 14:41:43;;;;;;;;;;;;;;;;;;4924052;28;19977;-72
2023/12/08 14:44:08;;;;;;;;;;;;;;;;;;4912297;28;20921;-72
2023/12/08 14:46:34;;;;;;;;;;;;;;;;;;4912615;28;20013;-70
2023/12/08 14:49:03;;;;;;;;;;;;;;;;;;4911342;28;20397;-71
2023/12/08 14:51:29;;;;;;;;;;;;;;;;;;4913634;28;20305;-71
2023/12/08 14:53:56;;;;;;;;;;;;;;;;;;4913559;28;19919;-72
2023/12/08 14:56:21;;;;;;;;;;;;;;;;;;4911271;28;19934;-72
2023/12/08 14:58:46;;;;;;;;;;;;;;;;;;4941064;28;20064;-72
2023/12/08 15:01:12;;;;;;;;;;;;;;;;;;4926609;28;19942;-75
2023/12/08 15:03:37;;;;;;;;;;;;;;;;;;4928572;28;19919;-73
2023/12/08 15:06:03;;;;;;;;;;;;;;;;;;4940422;28;19918;-71
2023/12/08 15:08:28;;;;;;;;;;;;;;;;;;4897392;29;20021;-73
2023/12/08 15:10:53;;;;;;;;;;;;;;;;;;4912772;28;20079;-72
2023/12/08 15:13:18;;;;;;;;;;;;;;;;;;4928932;28;20366;-74
2023/12/08 15:15:44;;;;;;;;;;;;;;;;;;4931948;28;19937;-73
2023/12/08 15:18:28;;;;;;;;;;;;;;;;;;4903498;28;19918;-73
2023/12/08 15:20:54;;;;;;;;;;;;;;;;;;4931280;28;20496;-71
2023/12/08 15:23:24;;;;;;;;;;;;;;;;;;4912334;28;19923;-71
2023/12/08 15:25:50;;;;;;;;;;;;;;;;;;4931925;28;19918;-73
2023/12/08 15:28:15;;;;;;;;;;;;;;;;;;4940663;28;19985;-73
2023/12/08 15:30:41;;;;;;;;;;;;;;;;;;4913041;29;20005;-73
2023/12/08 15:33:06;;;;;;;;;;;;;;;;;;4938664;28;19922;-71
2023/12/08 15:35:31;;;;;;;;;;;;;;;;;;4913369;28;19919;-72
2023/12/08 15:37:56;;;;;;;;;;;;;;;;;;4923701;28;19922;-73
2023/12/08 15:40:22;;;;;;;;;;;;;;;;;;4912331;29;19922;-73
2023/12/08 15:42:47;;;;;;;;;;;;;;;;;;4931373;28;19919;-73
2023/12/08 15:45:12;;;;;;;;;;;;;;;;;;4939280;28;20022;-72
2023/12/08 15:47:38;;;;;;;;;;;;;;;;;;4896769;29;19926;-72
2023/12/08 15:50:03;;;;;;;;;;;;;;;;;;4940097;28;19919;-72
2023/12/08 15:52:29;;;;;;;;;;;;;;;;;;4909777;29;20275;-71
2023/12/08 15:54:54;;;;;;;;;;;;;;;;;;4928773;28;19929;-71
2023/12/08 15:57:20;;;;;;;;;;;;;;;;;;4927728;28;20309;-71
2023/12/08 15:59:46;;;;;;;;;;;;;;;;;;4927852;28;19927;-72
2023/12/08 16:02:13;;;;;;;;;;;;;;;;;;4895721;28;20487;-72
2023/12/08 16:04:39;;;;;;;;;;;;;;;;;;4907239;29;19931;-72
2023/12/08 16:07:05;;;;;;;;;;;;;;;;;;4923207;28;19919;-71
2023/12/08 16:09:30;;;;;;;;;;;;;;;;;;4893472;28;19922;-72
2023/12/08 16:11:56;;;;;;;;;;;;;;;;;;4909929;29;20996;-72
2023/12/08 16:14:21;;;;;;;;;;;;;;;;;;4910124;28;19934;-72
2023/12/08 16:16:48;;;;;;;;;;;;;;;;;;4911082;29;20330;-72
2023/12/08 16:19:14;;;;;;;;;;;;;;;;;;4930363;28;20002;-72
2023/12/08 16:21:39;;;;;;;;;;;;;;;;;;4910801;29;19922;-72
2023/12/08 16:24:04;;;;;;;;;;;;;;;;;;4909248;29;19962;-72
2023/12/08 16:26:30;;;;;;;;;;;;;;;;;;4928369;28;19918;-73
2023/12/08 16:28:55;;;;;;;;;;;;;;;;;;4924358;28;19922;-73
2023/12/08 16:31:20;;;;;;;;;;;;;;;;;;4895870;28;20313;-73
2023/12/08 16:33:45;;;;;;;;;;;;;;;;;;4909644;29;20559;-72
2023/12/08 16:36:11;;;;;;;;;;;;;;;;;;4908897;28;19930;-74
2023/12/08 16:38:38;;;;;;;;;;;;;;;;;;4929913;28;20947;-71
2023/12/08 16:44:20;;;;;;;;;;;;;;;;;;4928688;28;19986;-73
2023/12/08 16:46:45;;;;;;;;;;;;;;;;;;4927333;28;20386;-72
2023/12/08 16:49:11;;;;;;;;;;;;;;;;;;4928560;28;20013;-74
2023/12/08 16:51:39;;;;;;;;;;;;;;;;;;4928199;28;20383;-73
2023/12/08 16:54:05;;;;;;;;;;;;;;;;;;4897310;29;19926;-72